Time;durP1;ratioP1;P1;durP2;ratioP2;P2;SDS_P1;SDS_P2;PMS_P1;PMS_P2;Temp;Humidity;BMP_temperature;BMP_pressure;BME280_temperature;BME280_humidity;BME280_pressure;Samples;Min_cycle;Max_cycle;Signal;HPM_P1;HPM_P2
2022/09/13 00:00:05;;;;;;;6.68;3.05;;;18.00;99.90;;;;;;5019349;28;20127;-65
2022/09/13 00:02:31;;;;;;;7.22;3.22;;;18.20;99.90;;;;;;5024705;28;20113;-65
2022/09/13 00:04:57;;;;;;;8.10;3.08;;;18.30;99.90;;;;;;5023465;28;20144;-65
2022/09/13 00:07:23;;;;;;;6.80;3.13;;;18.20;99.90;;;;;;5025332;28;20051;-65
2022/09/13 00:09:48;;;;;;;7.07;3.05;;;18.00;99.90;;;;;;5026616;28;20061;-65
2022/09/13 00:12:14;;;;;;;7.47;3.17;;;17.90;99.90;;;;;;5023976;28;20562;-65
2022/09/13 00:14:40;;;;;;;7.63;3.05;;;17.90;99.90;;;;;;5026361;28;20041;-65
2022/09/13 00:17:06;;;;;;;6.47;2.88;;;18.00;99.90;;;;;;5029284;28;20128;-65
2022/09/13 00:19:32;;;;;;;6.95;2.63;;;18.10;99.90;;;;;;5025956;28;20100;-65
2022/09/13 00:21:57;;;;;;;16.23;3.70;;;18.00;99.90;;;;;;5037755;28;20057;-65
2022/09/13 00:24:23;;;;;;;6.97;3.03;;;17.90;99.90;;;;;;5026975;28;20100;-65
2022/09/13 00:26:49;;;;;;;6.90;3.00;;;17.90;99.90;;;;;;5026639;28;20021;-65
2022/09/13 00:29:14;;;;;;;6.85;3.08;;;17.90;99.90;;;;;;5026442;28;20599;-65
2022/09/13 00:31:40;;;;;;;6.97;3.08;;;18.00;99.90;;;;;;5024703;28;20083;-65
2022/09/13 00:34:06;;;;;;;9.77;2.97;;;18.10;99.90;;;;;;5026530;28;20025;-65
2022/09/13 00:36:31;;;;;;;6.97;3.10;;;18.20;99.90;;;;;;5026054;28;20425;-65
2022/09/13 00:38:59;;;;;;;6.13;2.83;;;18.30;99.90;;;;;;5025795;28;20025;-65
2022/09/13 00:41:24;;;;;;;6.53;2.60;;;18.50;99.90;;;;;;5020589;28;20030;-65
2022/09/13 00:43:57;;;;;;;6.78;2.83;;;18.50;99.90;;;;;;5023419;28;20615;-65
2022/09/13 00:46:42;;;;;;;7.93;3.13;;;18.60;99.90;;;;;;5022714;28;20043;-65
2022/09/13 00:49:15;;;;;;;8.07;3.10;;;18.60;99.90;;;;;;5012534;28;20068;-65
2022/09/13 00:51:45;;;;;;;8.55;3.00;;;18.60;99.90;;;;;;5022570;28;20076;-65
2022/09/13 00:54:12;;;;;;;7.45;2.80;;;18.60;99.90;;;;;;5044104;28;20075;-65
2022/09/13 00:56:48;;;;;;;6.97;3.00;;;18.60;99.90;;;;;;5027069;28;20034;-65
2022/09/13 00:59:19;;;;;;;6.70;2.88;;;18.60;99.90;;;;;;5031972;28;20079;-65
2022/09/13 01:01:48;;;;;;;6.72;2.80;;;18.60;99.90;;;;;;5021791;28;20037;-65
2022/09/13 01:04:15;;;;;;;6.87;2.87;;;18.60;99.90;;;;;;5025542;28;20029;-65
2022/09/13 01:06:42;;;;;;;7.35;3.05;;;18.60;99.90;;;;;;5024531;28;20375;-65
2022/09/13 01:09:11;;;;;;;6.55;2.63;;;18.60;99.90;;;;;;5028012;28;20470;-65
2022/09/13 01:11:49;;;;;;;9.63;2.78;;;18.60;99.90;;;;;;5024867;28;20119;-65
2022/09/13 01:14:19;;;;;;;6.60;2.85;;;18.70;99.90;;;;;;5028380;28;20496;-65
2022/09/13 01:16:45;;;;;;;5.70;2.45;;;18.70;99.90;;;;;;5028158;28;20690;-65
2022/09/13 01:19:11;;;;;;;6.82;2.70;;;18.70;99.90;;;;;;5029918;28;20453;-65
2022/09/13 01:21:48;;;;;;;5.72;2.38;;;18.70;99.90;;;;;;5032444;28;20068;-65
2022/09/13 01:24:33;;;;;;;6.57;2.60;;;18.80;99.90;;;;;;5024848;28;20029;-65
2022/09/13 01:27:13;;;;;;;7.13;2.53;;;18.80;99.90;;;;;;5026049;28;20041;-65
2022/09/13 01:30:10;;;;;;;8.65;2.80;;;18.70;99.90;;;;;;5025439;28;20032;-65
2022/09/13 01:33:04;;;;;;;6.45;2.50;;;18.60;99.90;;;;;;5026040;28;20617;-66
2022/09/13 01:35:57;;;;;;;8.18;2.75;;;18.50;99.90;;;;;;5024326;28;20037;-65
2022/09/13 01:38:40;;;;;;;6.47;2.63;;;18.50;99.90;;;;;;5045997;28;20036;-65
2022/09/13 01:41:17;;;;;;;5.88;2.60;;;18.50;99.90;;;;;;5019287;28;20446;-65
2022/09/13 01:44:11;;;;;;;5.63;2.33;;;18.40;99.90;;;;;;5030188;28;20030;-65
2022/09/13 01:46:51;;;;;;;7.70;2.63;;;18.40;99.90;;;;;;5038973;28;20026;-65
2022/09/13 01:49:36;;;;;;;8.25;2.50;;;18.40;99.90;;;;;;5025855;28;20115;-65
2022/09/13 01:52:17;;;;;;;6.97;2.47;;;18.40;99.90;;;;;;5031742;28;20037;-65
2022/09/13 01:55:10;;;;;;;5.85;2.35;;;18.50;99.90;;;;;;5022690;28;20018;-65
2022/09/13 01:57:57;;;;;;;6.82;2.40;;;18.50;99.90;;;;;;5027436;28;20131;-66
2022/09/13 02:00:22;;;;;;;6.50;2.40;;;18.60;99.90;;;;;;5026911;28;20489;-65
2022/09/13 02:03:06;;;;;;;8.18;2.50;;;18.70;99.90;;;;;;5028979;28;20029;-65
2022/09/13 02:05:43;;;;;;;5.55;2.38;;;18.70;99.90;;;;;;5023144;28;20030;-65
2022/09/13 02:08:14;;;;;;;6.57;2.50;;;18.70;99.90;;;;;;5044315;28;20055;-65
2022/09/13 02:10:54;;;;;;;6.07;2.10;;;18.60;99.90;;;;;;5024642;28;20030;-65
2022/09/13 02:13:24;;;;;;;6.65;2.50;;;18.70;99.90;;;;;;5019140;28;20021;-65
2022/09/13 02:15:58;;;;;;;7.00;2.42;;;18.80;99.90;;;;;;5030434;28;20026;-65
2022/09/13 02:18:33;;;;;;;8.98;2.63;;;18.90;99.90;;;;;;5029044;28;20121;-65
2022/09/13 02:21:06;;;;;;;5.85;2.15;;;18.80;99.90;;;;;;5037313;28;20626;-65
2022/09/13 02:23:42;;;;;;;6.22;2.50;;;18.80;99.90;;;;;;5024240;28;20025;-65
2022/09/13 02:26:11;;;;;;;6.43;2.70;;;18.80;99.90;;;;;;5029824;28;20025;-65
2022/09/13 02:28:44;;;;;;;6.77;2.80;;;18.90;99.90;;;;;;5027770;28;20037;-65
2022/09/13 02:31:11;;;;;;;6.40;2.60;;;18.90;99.90;;;;;;5028262;28;20523;-65
2022/09/13 02:33:47;;;;;;;6.80;2.58;;;18.90;99.90;;;;;;5026497;28;20382;-65
2022/09/13 02:36:18;;;;;;;5.57;2.50;;;18.90;99.90;;;;;;5025242;28;20022;-65
2022/09/13 02:38:48;;;;;;;7.30;2.70;;;18.90;99.90;;;;;;5028091;28;20021;-66
2022/09/13 02:41:21;;;;;;;;;;;18.80;99.90;;;;;;5027422;28;20326;-65
2022/09/13 02:43:54;;;;;;;5.80;2.30;;;18.70;99.90;;;;;;5023854;28;19928;-65
2022/09/13 02:46:38;;;;;;;5.90;2.30;;;18.70;99.90;;;;;;5028640;28;20129;-65
2022/09/13 02:49:25;;;;;;;6.10;2.63;;;18.80;99.90;;;;;;5018142;28;20554;-65
2022/09/13 02:52:11;;;;;;;5.95;2.45;;;18.80;99.90;;;;;;5039315;28;20051;-65
2022/09/13 02:54:53;;;;;;;6.18;2.28;;;18.80;99.90;;;;;;5026965;28;20507;-65
2022/09/13 02:57:59;;;;;;;6.25;2.42;;;18.90;99.90;;;;;;5028500;28;20226;-65
2022/09/13 03:00:26;;;;;;;6.50;2.28;;;18.80;99.90;;;;;;5022261;28;20033;-65
2022/09/13 03:02:55;;;;;;;7.72;2.50;;;18.80;99.90;;;;;;5025686;28;20072;-66
2022/09/13 03:05:21;;;;;;;9.50;2.65;;;18.90;99.90;;;;;;5027698;28;20158;-65
2022/09/13 03:07:48;;;;;;;6.72;2.33;;;18.90;99.90;;;;;;5024101;28;20169;-65
2022/09/13 03:10:15;;;;;;;7.78;2.45;;;19.00;99.90;;;;;;5025790;28;20363;-65
2022/09/13 03:13:06;;;;;;;7.15;2.50;;;19.00;99.90;;;;;;5019587;28;20040;-65
2022/09/13 03:15:50;;;;;;;8.10;2.42;;;19.00;99.90;;;;;;5018281;28;20045;-65
2022/09/13 03:18:44;;;;;;;7.18;2.70;;;19.00;99.90;;;;;;5027737;28;20390;-65
2022/09/13 03:21:33;;;;;;;6.00;2.45;;;19.00;99.90;;;;;;5019908;28;20136;-65
2022/09/13 03:24:43;;;;;;;7.63;2.55;;;19.00;99.90;;;;;;5026141;28;20033;-65
2022/09/13 03:27:36;;;;;;;7.53;2.80;;;19.00;99.90;;;;;;5016812;28;20034;-65
2022/09/13 03:30:07;;;;;;;6.15;2.28;;;19.00;99.90;;;;;;5022149;28;20408;-65
2022/09/13 03:33:07;;;;;;;6.43;2.50;;;19.00;99.90;;;;;;5023550;28;20034;-65
2022/09/13 03:35:40;;;;;;;5.68;2.63;;;19.00;99.90;;;;;;5026117;28;20033;-65
2022/09/13 03:38:17;;;;;;;7.72;2.70;;;18.90;99.90;;;;;;5027008;28;20033;-65
2022/09/13 03:40:50;;;;;;;5.70;2.45;;;18.90;99.90;;;;;;5022829;28;20354;-65
2022/09/13 03:43:25;;;;;;;6.15;2.47;;;18.70;99.90;;;;;;5023469;28;20397;-65
2022/09/13 03:45:58;;;;;;;7.63;2.45;;;18.80;99.90;;;;;;5024067;28;20021;-65
2022/09/13 03:48:26;;;;;;;5.63;2.35;;;18.70;99.90;;;;;;5024648;28;20524;-65
2022/09/13 03:50:53;;;;;;;6.00;2.40;;;18.80;99.90;;;;;;5025066;28;20033;-66
2022/09/13 03:53:26;;;;;;;6.35;2.40;;;18.80;99.90;;;;;;5024799;28;20040;-65
2022/09/13 03:55:53;;;;;;;7.18;2.50;;;18.80;99.90;;;;;;5019983;28;20060;-63
2022/09/13 03:58:20;;;;;;;5.45;2.33;;;18.80;99.90;;;;;;5025484;28;20105;-65
2022/09/13 04:00:46;;;;;;;8.15;2.45;;;18.80;99.90;;;;;;5022262;28;20029;-65
2022/09/13 04:03:13;;;;;;;6.47;2.60;;;18.80;99.90;;;;;;5025030;28;20414;-65
2022/09/13 04:05:38;;;;;;;7.07;2.40;;;18.70;99.90;;;;;;5024303;28;20393;-65
2022/09/13 04:08:05;;;;;;;5.50;2.20;;;18.70;99.90;;;;;;5025120;28;20028;-65
2022/09/13 04:10:32;;;;;;;6.30;2.45;;;18.60;99.90;;;;;;5024669;28;20520;-65
2022/09/13 04:13:01;;;;;;;6.88;2.90;;;18.50;99.90;;;;;;5027516;28;20506;-65
2022/09/13 04:15:29;;;;;;;6.50;2.50;;;18.40;99.90;;;;;;5022048;28;20085;-65
2022/09/13 04:17:55;;;;;;;7.00;2.65;;;18.40;99.90;;;;;;5029797;28;20025;-65
2022/09/13 04:20:21;;;;;;;6.82;2.75;;;18.40;99.90;;;;;;5025725;28;20049;-65
2022/09/13 04:22:53;;;;;;;6.55;2.65;;;18.40;99.90;;;;;;5021011;28;20029;-65
2022/09/13 04:25:21;;;;;;;6.55;2.50;;;18.40;99.90;;;;;;5024228;28;20534;-65
2022/09/13 04:27:47;;;;;;;7.15;2.42;;;18.40;99.90;;;;;;5024197;28;20036;-65
2022/09/13 04:30:14;;;;;;;6.20;2.35;;;18.50;99.90;;;;;;5022907;28;20119;-65
2022/09/13 04:32:42;;;;;;;5.70;2.40;;;18.50;99.90;;;;;;5021914;28;20025;-65
2022/09/13 04:35:08;;;;;;;7.78;2.50;;;18.50;99.90;;;;;;5016698;28;20511;-65
2022/09/13 04:37:34;;;;;;;5.55;2.50;;;18.50;99.90;;;;;;5020805;28;20057;-65
2022/09/13 04:39:59;;;;;;;6.63;2.78;;;18.40;99.90;;;;;;5023369;28;20684;-65
2022/09/13 04:42:25;;;;;;;7.60;2.30;;;18.60;99.90;;;;;;5021150;28;20029;-65
2022/09/13 04:44:50;;;;;;;5.90;2.25;;;18.50;99.90;;;;;;5025167;28;20026;-63
2022/09/13 04:47:16;;;;;;;5.93;2.40;;;18.50;99.90;;;;;;5038453;28;20064;-66
2022/09/13 04:49:42;;;;;;;7.60;2.22;;;18.50;99.90;;;;;;5030567;28;20155;-65
2022/09/13 04:52:08;;;;;;;6.50;2.10;;;18.50;99.90;;;;;;5028938;28;20033;-65
2022/09/13 04:54:33;;;;;;;6.78;2.40;;;18.50;99.90;;;;;;5024574;28;20030;-66
2022/09/13 04:56:59;;;;;;;5.25;2.13;;;18.30;99.90;;;;;;5027530;28;20030;-65
2022/09/13 04:59:24;;;;;;;6.18;2.30;;;18.40;99.90;;;;;;5030373;28;20018;-66
2022/09/13 05:01:50;;;;;;;7.63;2.20;;;18.40;99.90;;;;;;5027706;28;20052;-65
2022/09/13 05:04:16;;;;;;;5.10;2.03;;;18.30;99.90;;;;;;5027014;28;20029;-66
2022/09/13 05:06:41;;;;;;;5.82;2.45;;;18.30;99.90;;;;;;5042912;28;20037;-65
2022/09/13 05:09:12;;;;;;;7.43;2.70;;;18.30;99.90;;;;;;5041704;28;20040;-65
2022/09/13 05:11:38;;;;;;;5.03;2.10;;;18.30;99.90;;;;;;5024295;28;20496;-63
2022/09/13 05:14:04;;;;;;;7.63;2.50;;;18.40;99.90;;;;;;5026113;28;20063;-64
2022/09/13 05:16:31;;;;;;;7.72;2.65;;;18.50;99.90;;;;;;5026445;28;20121;-65
2022/09/13 05:18:57;;;;;;;5.68;2.10;;;18.50;99.90;;;;;;5023928;28;20090;-65
2022/09/13 05:21:23;;;;;;;9.57;2.60;;;18.60;99.90;;;;;;5023861;28;20335;-64
2022/09/13 05:23:50;;;;;;;6.10;2.47;;;18.70;99.90;;;;;;5025344;28;20731;-64
2022/09/13 05:26:16;;;;;;;6.43;2.38;;;18.70;99.90;;;;;;5023166;28;20498;-65
2022/09/13 05:28:42;;;;;;;5.68;2.40;;;18.80;99.90;;;;;;5026298;28;20024;-65
2022/09/13 05:31:20;;;;;;;6.32;2.20;;;18.80;99.90;;;;;;5026549;28;20037;-64
2022/09/13 05:33:51;;;;;;;6.57;2.10;;;18.80;99.90;;;;;;5020928;28;20097;-64
2022/09/13 05:36:17;;;;;;;5.47;2.10;;;18.80;99.90;;;;;;5026239;28;20028;-65
2022/09/13 05:38:43;;;;;;;5.43;2.17;;;18.80;99.90;;;;;;5042794;28;20481;-65
2022/09/13 05:41:08;;;;;;;8.10;2.67;;;18.80;99.90;;;;;;5024578;28;20025;-65
2022/09/13 05:43:35;;;;;;;6.00;2.30;;;18.80;99.90;;;;;;5025872;28;20048;-65
2022/09/13 05:46:01;;;;;;;6.78;2.40;;;18.80;99.90;;;;;;5027013;28;20029;-65
2022/09/13 05:48:27;;;;;;;7.47;2.22;;;18.80;99.90;;;;;;5039686;28;20543;-65
2022/09/13 05:50:53;;;;;;;6.82;2.20;;;18.80;99.90;;;;;;5026516;28;20389;-65
2022/09/13 05:53:19;;;;;;;5.70;2.17;;;18.90;99.90;;;;;;5026854;28;20025;-65
2022/09/13 05:55:45;;;;;;;6.68;2.20;;;19.00;99.90;;;;;;5026214;28;20104;-64
2022/09/13 05:58:10;;;;;;;5.80;2.10;;;19.00;99.90;;;;;;5027572;28;20025;-65
2022/09/13 06:00:36;;;;;;;6.85;2.28;;;19.00;99.90;;;;;;5026993;28;20025;-65
2022/09/13 06:03:02;;;;;;;7.10;2.40;;;19.00;99.90;;;;;;5026946;28;20075;-65
2022/09/13 06:05:28;;;;;;;6.45;2.38;;;19.10;99.90;;;;;;5026655;28;20392;-65
2022/09/13 06:07:53;;;;;;;5.40;2.10;;;19.00;99.90;;;;;;5023426;28;20021;-65
2022/09/13 06:10:19;;;;;;;6.82;2.30;;;19.10;99.90;;;;;;5023460;28;20100;-65
2022/09/13 06:12:46;;;;;;;6.53;2.40;;;19.10;99.90;;;;;;5023185;28;20030;-65
2022/09/13 06:15:12;;;;;;;5.82;2.45;;;19.10;99.90;;;;;;5025795;28;20013;-65
2022/09/13 06:17:37;;;;;;;6.45;2.28;;;19.10;99.90;;;;;;5036402;28;20117;-65
2022/09/13 06:20:04;;;;;;;5.18;2.05;;;19.10;99.90;;;;;;5027166;28;20152;-65
2022/09/13 06:22:32;;;;;;;8.85;2.22;;;19.10;99.90;;;;;;5027045;28;20033;-66
2022/09/13 06:24:58;;;;;;;8.63;2.70;;;19.10;99.90;;;;;;5025213;28;20637;-65
2022/09/13 06:27:24;;;;;;;6.93;2.25;;;19.10;99.90;;;;;;5024470;28;20022;-65
2022/09/13 06:29:50;;;;;;;8.18;2.20;;;19.10;99.90;;;;;;5023184;28;20025;-65
2022/09/13 06:32:16;;;;;;;7.32;2.25;;;19.10;99.90;;;;;;5026440;28;20056;-65
2022/09/13 06:34:41;;;;;;;4.95;2.03;;;19.20;99.90;;;;;;5018085;28;20129;-65
2022/09/13 06:37:07;;;;;;;6.97;2.60;;;19.20;99.90;;;;;;5028253;28;20097;-65
2022/09/13 06:39:33;;;;;;;6.18;2.03;;;19.10;99.90;;;;;;5025683;28;20032;-65
2022/09/13 06:41:59;;;;;;;7.47;2.47;;;19.10;99.90;;;;;;5026908;28;20060;-65
2022/09/13 06:44:25;;;;;;;5.93;2.20;;;19.20;99.90;;;;;;5027191;28;20375;-65
2022/09/13 06:46:51;;;;;;;7.88;2.40;;;19.30;99.90;;;;;;5041271;28;20030;-65
2022/09/13 06:49:16;;;;;;;6.38;2.13;;;19.30;99.90;;;;;;5026695;28;20017;-65
2022/09/13 06:51:42;;;;;;;6.07;2.25;;;19.30;99.90;;;;;;5026897;28;20033;-65
2022/09/13 06:54:08;;;;;;;7.38;2.40;;;19.30;99.90;;;;;;5019677;28;20370;-65
2022/09/13 06:56:36;;;;;;;6.47;2.42;;;19.30;99.90;;;;;;5021553;28;20037;-65
2022/09/13 06:59:04;;;;;;;8.13;2.38;;;19.30;99.90;;;;;;5026075;28;20033;-65
2022/09/13 07:01:34;;;;;;;6.47;2.28;;;19.30;99.90;;;;;;5026979;28;20035;-65
2022/09/13 07:04:09;;;;;;;5.43;2.28;;;19.40;99.90;;;;;;5025780;28;20029;-65
2022/09/13 07:06:37;;;;;;;6.28;2.42;;;19.40;99.90;;;;;;5028218;28;20034;-66
2022/09/13 07:09:05;;;;;;;6.63;2.53;;;19.50;99.90;;;;;;5025417;28;20029;-67
2022/09/13 07:11:36;;;;;;;6.00;2.40;;;19.50;99.90;;;;;;5020126;28;20036;-65
2022/09/13 07:14:02;;;;;;;6.13;2.58;;;19.50;99.90;;;;;;5041387;28;20036;-65
2022/09/13 07:16:30;;;;;;;5.45;2.10;;;19.60;99.90;;;;;;5027504;28;20052;-65
2022/09/13 07:18:58;;;;;;;7.38;2.40;;;19.70;99.90;;;;;;5016124;28;20041;-65
2022/09/13 07:21:25;;;;;;;6.50;2.35;;;19.70;99.90;;;;;;5021258;28;20056;-65
2022/09/13 07:23:52;;;;;;;8.60;2.30;;;19.80;99.90;;;;;;5020901;28;20141;-64
2022/09/13 07:26:18;;;;;;;6.55;2.10;;;19.90;99.90;;;;;;5022887;28;20366;-65
2022/09/13 07:28:46;;;;;;;6.95;2.20;;;20.10;99.90;;;;;;5026212;28;20027;-65
2022/09/13 07:31:21;;;;;;;7.28;2.10;;;20.40;99.90;;;;;;5024457;28;20049;-66
2022/09/13 07:33:53;;;;;;;7.13;2.25;;;20.40;99.90;;;;;;5039097;28;20112;-65
2022/09/13 07:36:19;;;;;;;9.52;2.88;;;20.60;99.90;;;;;;5026024;28;20104;-65
2022/09/13 07:38:44;;;;;;;7.05;2.30;;;20.80;99.90;;;;;;5023396;28;20017;-65
2022/09/13 07:41:18;;;;;;;5.88;2.20;;;20.90;99.90;;;;;;5024724;28;20029;-65
2022/09/13 07:43:44;;;;;;;7.03;2.40;;;20.90;99.90;;;;;;5016360;28;20021;-65
2022/09/13 07:46:15;;;;;;;7.13;2.42;;;21.00;99.90;;;;;;5026591;28;20120;-65
2022/09/13 07:48:42;;;;;;;8.13;2.53;;;21.40;99.90;;;;;;5016797;28;20033;-65
2022/09/13 07:51:10;;;;;;;6.53;2.50;;;21.60;99.90;;;;;;5025535;28;20100;-64
2022/09/13 07:53:36;;;;;;;6.75;2.30;;;21.80;99.90;;;;;;5023830;28;20028;-65
2022/09/13 07:56:04;;;;;;;6.38;2.42;;;22.00;99.90;;;;;;5024786;28;20072;-65
2022/09/13 07:58:31;;;;;;;5.72;2.33;;;22.30;99.90;;;;;;5023571;28;20037;-65
2022/09/13 08:01:07;;;;;;;8.88;2.15;;;22.50;99.90;;;;;;5025295;28;20072;-65
2022/09/13 08:03:34;;;;;;;8.07;2.28;;;22.50;99.90;;;;;;5041340;28;20045;-65
2022/09/13 08:06:00;;;;;;;8.32;2.20;;;22.50;99.90;;;;;;5025173;28;20021;-65
2022/09/13 08:08:27;;;;;;;9.07;2.38;;;22.50;99.90;;;;;;5022702;28;20032;-66
2022/09/13 08:10:53;;;;;;;9.63;2.30;;;22.30;99.90;;;;;;5021473;28;20040;-65
2022/09/13 08:13:18;;;;;;;5.72;2.33;;;21.90;99.90;;;;;;5035653;28;20380;-66
2022/09/13 08:15:44;;;;;;;7.72;2.47;;;21.70;99.90;;;;;;5021406;28;20048;-65
2022/09/13 08:18:10;;;;;;;6.53;2.40;;;21.60;99.90;;;;;;5023224;28;20028;-65
2022/09/13 08:20:37;;;;;;;5.93;2.35;;;21.50;99.90;;;;;;5022970;28;20401;-65
2022/09/13 08:23:04;;;;;;;7.15;2.40;;;21.50;99.90;;;;;;5017163;28;20029;-65
2022/09/13 08:25:33;;;;;;;6.00;2.40;;;21.70;99.90;;;;;;5023035;28;20021;-66
2022/09/13 08:27:59;;;;;;;5.70;2.35;;;21.70;99.90;;;;;;5039343;28;20021;-65
2022/09/13 08:30:31;;;;;;;6.18;2.40;;;21.80;99.90;;;;;;5026196;28;20408;-65
2022/09/13 08:33:01;;;;;;;9.38;2.35;;;21.90;99.90;;;;;;5026450;28;20053;-65
2022/09/13 08:35:27;;;;;;;9.45;2.45;;;22.20;99.90;;;;;;5022806;28;20172;-65
2022/09/13 08:37:53;;;;;;;7.93;2.22;;;22.50;99.90;;;;;;5023994;28;20359;-65
2022/09/13 08:40:20;;;;;;;8.98;2.60;;;22.70;99.90;;;;;;5036765;28;20029;-65
2022/09/13 08:43:01;;;;;;;6.93;2.58;;;22.80;99.90;;;;;;5023843;28;20061;-65
2022/09/13 08:45:27;;;;;;;8.82;2.58;;;22.70;99.90;;;;;;5023738;28;20037;-65
2022/09/13 08:48:02;;;;;;;9.93;2.55;;;22.50;99.90;;;;;;5022413;28;20047;-65
2022/09/13 08:50:33;;;;;;;8.57;2.65;;;22.70;99.90;;;;;;5020536;28;20069;-65
2022/09/13 08:53:16;;;;;;;7.40;3.17;;;23.10;99.90;;;;;;5023960;28;20038;-65
2022/09/13 08:56:04;;;;;;;6.40;2.53;;;23.20;99.90;;;;;;5030445;28;20543;-65
2022/09/13 08:58:54;;;;;;;7.90;3.10;;;23.30;99.90;;;;;;5021931;28;20029;-65
2022/09/13 09:01:41;;;;;;;11.73;3.13;;;23.30;99.90;;;;;;5038625;28;20014;-65
2022/09/13 09:04:24;;;;;;;17.25;3.22;;;23.60;99.90;;;;;;5024311;28;20637;-65
2022/09/13 09:07:12;;;;;;;9.82;3.00;;;23.90;99.90;;;;;;5024062;28;20034;-65
2022/09/13 09:10:06;;;;;;;7.45;3.40;;;24.20;99.90;;;;;;5023051;28;20549;-65
2022/09/13 09:12:44;;;;;;;7.93;2.85;;;24.00;99.90;;;;;;5008638;28;20045;-65
2022/09/13 09:15:36;;;;;;;8.98;3.40;;;24.50;99.90;;;;;;5021855;28;20075;-65
2022/09/13 09:18:24;;;;;;;9.50;2.60;;;25.10;99.90;;;;;;5015938;28;20022;-65
2022/09/13 09:20:56;;;;;;;8.68;3.17;;;25.50;99.70;;;;;;5020125;28;20045;-65
2022/09/13 09:23:51;;;;;;;8.40;3.08;;;25.70;99.40;;;;;;5019765;28;20033;-65
2022/09/13 09:26:25;;;;;;;10.63;3.30;;;25.60;99.80;;;;;;5023173;28;20033;-65
2022/09/13 09:29:13;;;;;;;11.23;3.60;;;25.80;98.80;;;;;;5018486;28;20057;-65
2022/09/13 09:31:52;;;;;;;11.10;3.75;;;26.40;97.80;;;;;;5023172;28;20040;-65
2022/09/13 09:34:44;;;;;;;9.10;3.00;;;26.80;97.40;;;;;;5023595;28;20480;-65
2022/09/13 09:37:19;;;;;;;12.82;3.25;;;27.10;96.80;;;;;;5039055;28;20021;-66
2022/09/13 09:39:46;;;;;;;8.73;3.35;;;27.70;95.80;;;;;;5021672;28;20421;-66
2022/09/13 09:42:17;;;;;;;9.77;3.63;;;27.50;95.90;;;;;;5037878;28;20508;-66
2022/09/13 09:44:52;;;;;;;10.27;3.30;;;27.10;95.40;;;;;;5043215;28;20029;-66
2022/09/13 09:47:24;;;;;;;7.88;3.05;;;26.60;97.00;;;;;;5025405;28;20139;-65
2022/09/13 09:50:27;;;;;;;7.97;3.25;;;27.20;96.30;;;;;;5027559;28;20048;-65
2022/09/13 09:53:02;;;;;;;11.60;3.35;;;27.80;95.40;;;;;;5005038;28;20077;-64
2022/09/13 09:55:45;;;;;;;9.75;3.30;;;27.40;95.10;;;;;;5017584;28;20064;-64
2022/09/13 09:58:15;;;;;;;8.48;2.75;;;27.30;96.10;;;;;;5021895;28;20111;-64
2022/09/13 10:00:55;;;;;;;10.07;3.58;;;27.60;96.00;;;;;;5027629;28;20029;-64
2022/09/13 10:03:27;;;;;;;10.38;3.40;;;27.70;94.90;;;;;;5038999;28;20045;-64
2022/09/13 10:06:17;;;;;;;8.68;3.38;;;27.70;94.80;;;;;;5035334;28;20679;-63
2022/09/13 10:08:46;;;;;;;;;;;27.80;94.70;;;;;;5025548;28;20036;-64
2022/09/13 10:11:12;;;;;;;7.97;3.20;;;27.30;95.50;;;;;;5022516;28;19936;-64
2022/09/13 10:13:37;;;;;;;8.98;3.45;;;27.10;95.40;;;;;;5027996;28;20424;-64
2022/09/13 10:16:06;;;;;;;10.07;4.07;;;26.80;95.90;;;;;;5025089;28;20054;-64
2022/09/13 10:18:35;;;;;;;10.25;3.50;;;27.20;95.60;;;;;;5021196;28;20090;-64
2022/09/13 10:21:18;;;;;;;8.43;3.33;;;27.20;95.60;;;;;;5024717;28;20065;-63
2022/09/13 10:23:49;;;;;;;7.07;2.85;;;26.70;96.30;;;;;;5018873;28;20038;-64
2022/09/13 10:26:20;;;;;;;9.13;3.58;;;27.20;95.70;;;;;;5027360;28;20025;-64
2022/09/13 10:29:12;;;;;;;11.30;4.00;;;27.40;95.70;;;;;;5024437;28;20030;-65
2022/09/13 10:31:44;;;;;;;9.68;3.40;;;26.70;96.40;;;;;;5024474;28;20117;-64
2022/09/13 10:34:19;;;;;;;8.43;3.30;;;26.70;96.50;;;;;;5030413;28;20021;-64
2022/09/13 10:36:57;;;;;;;9.30;3.40;;;26.70;96.90;;;;;;5042765;28;20072;-64
2022/09/13 10:39:24;;;;;;;11.65;3.47;;;27.60;95.70;;;;;;5022192;28;20069;-64
2022/09/13 10:41:50;;;;;;;8.07;3.50;;;27.90;95.00;;;;;;5017828;28;20048;-64
2022/09/13 10:44:56;;;;;;;9.38;3.72;;;28.10;94.70;;;;;;5023453;28;20452;-64
2022/09/13 10:47:26;;;;;;;7.97;3.30;;;27.10;95.60;;;;;;5014089;28;20049;-64
2022/09/13 10:49:54;;;;;;;9.23;3.15;;;27.60;95.60;;;;;;5023960;28;20032;-63
2022/09/13 10:52:35;;;;;;;10.75;4.50;;;27.90;95.30;;;;;;5022892;28;20125;-64
2022/09/13 10:55:18;;;;;;;9.02;3.30;;;28.50;94.30;;;;;;5022461;28;20462;-65
2022/09/13 10:57:47;;;;;;;10.52;3.83;;;29.60;93.50;;;;;;5024879;28;20021;-64
2022/09/13 11:00:19;;;;;;;9.82;3.78;;;28.80;93.50;;;;;;5023458;28;20112;-64
2022/09/13 11:02:53;;;;;;;10.02;3.30;;;28.50;94.00;;;;;;5025019;28;20071;-64
2022/09/13 11:05:24;;;;;;;11.52;3.42;;;28.80;93.70;;;;;;5023416;28;20033;-64
2022/09/13 11:08:20;;;;;;;10.02;3.70;;;28.80;94.00;;;;;;5037142;28;20025;-64
2022/09/13 11:11:04;;;;;;;9.30;3.85;;;29.00;93.50;;;;;;5024005;28;20441;-63
2022/09/13 11:13:54;;;;;;;10.32;3.90;;;29.00;93.30;;;;;;5025839;28;20025;-64
2022/09/13 11:16:50;;;;;;;10.50;3.50;;;29.80;92.90;;;;;;5021974;28;20068;-64
2022/09/13 11:19:19;;;;;;;11.00;3.55;;;31.30;91.00;;;;;;5020964;28;20461;-65
2022/09/13 11:21:50;;;;;;;10.15;3.63;;;31.50;90.20;;;;;;5021190;28;20469;-64
2022/09/13 11:24:34;;;;;;;7.95;2.80;;;30.80;91.00;;;;;;5019790;28;20382;-65
2022/09/13 11:27:13;;;;;;;7.32;2.80;;;31.00;90.80;;;;;;5019955;28;20041;-64
2022/09/13 11:29:56;;;;;;;8.68;2.97;;;30.70;90.50;;;;;;5023468;28;20061;-64
2022/09/13 11:32:43;;;;;;;14.10;3.10;;;31.40;90.40;;;;;;5023912;28;20036;-64
2022/09/13 11:35:47;;;;;;;8.60;3.13;;;31.30;90.50;;;;;;5020598;28;20037;-64
2022/09/13 11:38:50;;;;;;;9.45;3.00;;;31.60;88.30;;;;;;4978409;28;20475;-64
2022/09/13 11:41:45;;;;;;;8.65;3.22;;;31.20;89.40;;;;;;4977946;28;20029;-64
2022/09/13 11:44:22;;;;;;;7.38;2.80;;;31.60;88.80;;;;;;5017292;28;20507;-64
2022/09/13 11:46:50;;;;;;;8.88;3.10;;;31.80;87.10;;;;;;5022506;28;20172;-64
2022/09/13 11:49:38;;;;;;;9.98;3.03;;;32.20;87.30;;;;;;5021531;28;20018;-64
2022/09/13 11:52:38;;;;;;;9.45;3.35;;;32.60;86.70;;;;;;5024031;28;20038;-64
2022/09/13 11:55:28;;;;;;;12.20;3.20;;;33.20;85.10;;;;;;5024292;28;20037;-64
2022/09/13 11:58:01;;;;;;;10.63;3.78;;;32.30;85.40;;;;;;5020146;28;20030;-64
2022/09/13 12:00:54;;;;;;;8.65;3.40;;;33.30;85.40;;;;;;5022414;28;20033;-64
2022/09/13 12:03:45;;;;;;;9.00;3.17;;;33.20;83.60;;;;;;5018342;28;20078;-65
2022/09/13 12:06:14;;;;;;;8.80;3.00;;;34.40;81.60;;;;;;5017840;28;20033;-65
2022/09/13 12:08:49;;;;;;;11.77;3.83;;;34.60;80.80;;;;;;5021608;28;20052;-64
2022/09/13 12:11:21;;;;;;;8.25;3.17;;;33.60;81.60;;;;;;5010268;28;20108;-64
2022/09/13 12:13:59;;;;;;;10.65;3.15;;;32.80;82.50;;;;;;5016357;28;20033;-64
2022/09/13 12:16:31;;;;;;;10.63;3.40;;;33.00;83.60;;;;;;5024468;28;20109;-64
2022/09/13 12:19:05;;;;;;;10.02;3.10;;;32.50;84.30;;;;;;5025003;28;20025;-65
2022/09/13 12:21:38;;;;;;;7.38;3.08;;;31.40;86.20;;;;;;5013994;28;20111;-64
2022/09/13 12:24:21;;;;;;;9.07;3.35;;;30.80;86.20;;;;;;5019357;28;20030;-64
2022/09/13 12:26:58;;;;;;;9.68;3.75;;;30.80;87.00;;;;;;5018390;28;20021;-64
2022/09/13 12:29:44;;;;;;;7.63;3.45;;;29.60;89.80;;;;;;5021055;28;20500;-64
2022/09/13 12:32:17;;;;;;;11.85;4.05;;;30.20;88.50;;;;;;5034129;28;20029;-64
2022/09/13 12:35:02;;;;;;;12.27;4.10;;;30.70;87.90;;;;;;5017036;28;20505;-64
2022/09/13 12:37:48;;;;;;;11.68;3.63;;;31.20;87.00;;;;;;5017957;28;20478;-64
2022/09/13 12:40:42;;;;;;;9.10;3.80;;;31.50;87.30;;;;;;5018001;28;20053;-65
2022/09/13 12:43:46;;;;;;;9.00;3.80;;;32.10;85.50;;;;;;5017591;28;20628;-65
2022/09/13 12:46:38;;;;;;;10.20;4.00;;;32.30;86.20;;;;;;5013613;28;20057;-64
2022/09/13 12:49:29;;;;;;;8.90;3.30;;;32.30;86.10;;;;;;5020676;28;20136;-65
2022/09/13 12:52:16;;;;;;;8.52;4.00;;;32.70;86.00;;;;;;5015424;28;20050;-65
2022/09/13 12:54:59;;;;;;;8.13;3.35;;;31.00;87.20;;;;;;5017050;28;20032;-64
2022/09/13 12:57:52;;;;;;;9.52;3.97;;;30.70;88.80;;;;;;5020557;28;20389;-64
2022/09/13 13:00:24;;;;;;;11.10;4.05;;;30.70;88.80;;;;;;5018211;28;20074;-64
2022/09/13 13:02:59;;;;;;;10.65;4.50;;;30.10;89.80;;;;;;5024126;28;20041;-65
2022/09/13 13:05:32;;;;;;;13.18;4.70;;;29.50;91.10;;;;;;5025946;28;20040;-64
2022/09/13 13:08:02;;;;;;;9.38;4.43;;;28.70;91.70;;;;;;5022318;28;20033;-65
2022/09/13 13:10:35;;;;;;;11.07;4.30;;;28.80;92.30;;;;;;5018869;28;20084;-64
2022/09/13 13:13:13;;;;;;;9.48;4.43;;;29.40;91.70;;;;;;5016837;28;20029;-64
2022/09/13 13:15:42;;;;;;;11.32;4.35;;;29.00;91.80;;;;;;5020585;28;20034;-64
2022/09/13 13:18:50;;;;;;;13.90;5.57;;;28.70;92.20;;;;;;5023763;28;20051;-64